createdAt,value
2022-12-05T00:00:40.372Z,28.35
2022-12-05T00:03:42.237Z,28.20
2022-12-05T00:06:44.077Z,25.17
2022-12-05T00:09:45.619Z,31.17
2022-12-05T00:12:47.113Z,28.35
2022-12-05T00:15:48.598Z,30.55
2022-12-05T00:18:50.429Z,31.38
2022-12-05T00:21:52.101Z,31.00
2022-12-05T00:24:53.709Z,31.15
2022-12-05T00:27:55.308Z,29.02
2022-12-05T00:30:57.055Z,26.13
2022-12-05T00:34:02.963Z,25.27
2022-12-05T00:37:04.560Z,26.98
2022-12-05T00:40:06.834Z,28.77
2022-12-05T00:43:08.320Z,30.48
2022-12-05T00:46:18.888Z,25.27
2022-12-05T00:49:20.520Z,25.65
2022-12-05T00:52:22.070Z,23.00
2022-12-05T00:55:23.596Z,21.80
2022-12-05T00:58:25.086Z,22.77
2022-12-05T01:01:33.176Z,18.48
2022-12-05T01:04:34.892Z,18.27
2022-12-05T01:07:36.417Z,20.48
2022-12-05T01:10:38.014Z,19.15
2022-12-05T01:13:39.610Z,18.33
2022-12-05T01:16:42.785Z,17.10
2022-12-05T01:19:44.341Z,16.63
2022-12-05T01:22:45.864Z,13.40
2022-12-05T01:25:49.691Z,16.00
2022-12-05T01:28:52.461Z,16.10
2022-12-05T01:31:54.782Z,15.45
2022-12-05T01:34:56.500Z,15.18
2022-12-05T01:37:58.313Z,15.90
2022-12-05T01:41:01.922Z,14.20
2022-12-05T01:44:08.154Z,12.95
2022-12-05T01:47:09.687Z,14.23
2022-12-05T01:50:13.063Z,14.00
2022-12-05T01:53:16.083Z,13.50
2022-12-05T01:56:20.108Z,14.38
2022-12-05T01:59:22.906Z,12.52
2022-12-05T02:02:24.892Z,12.32
2022-12-05T02:05:33.536Z,13.43
2022-12-05T02:08:35.982Z,10.90
2022-12-05T02:11:50.066Z,11.10
2022-12-05T02:15:24.086Z,14.82
2022-12-05T02:18:25.519Z,12.43
2022-12-05T02:21:45.388Z,12.82
2022-12-05T02:24:55.814Z,14.77
2022-12-05T02:28:19.004Z,14.18
2022-12-05T02:31:39.253Z,13.52
2022-12-05T02:35:22.546Z,11.60
2022-12-05T02:38:40.985Z,14.10
2022-12-05T02:41:58.604Z,11.48
2022-12-05T02:45:05.505Z,13.25
2022-12-05T02:48:08.099Z,11.30
2022-12-05T02:51:14.745Z,12.13
2022-12-05T02:54:21.347Z,13.65
2022-12-05T02:57:24.751Z,12.60
2022-12-05T03:00:26.570Z,13.98
2022-12-05T03:03:28.962Z,13.35
2022-12-05T03:06:45.478Z,12.82
2022-12-05T03:09:54.156Z,13.20
2022-12-05T03:13:00.715Z,14.30
2022-12-05T03:16:11.671Z,11.65
2022-12-05T03:19:23.769Z,14.65
2022-12-05T03:22:46.703Z,11.63
2022-12-05T03:26:02.713Z,11.93
2022-12-05T03:29:36.484Z,10.25
2022-12-05T03:33:04.936Z,10.50
2022-12-05T03:36:13.823Z,11.38
2022-12-05T03:39:25.954Z,11.35
2022-12-05T03:42:33.862Z,11.63
2022-12-05T03:45:42.662Z,10.32
2022-12-05T03:48:56.868Z,11.30
2022-12-05T03:52:09.363Z,10.50
2022-12-05T03:55:13.975Z,9.88
2022-12-05T03:58:26.214Z,9.75
2022-12-05T04:01:31.435Z,9.43
2022-12-05T04:04:49.115Z,9.35
2022-12-05T04:08:23.852Z,9.88
2022-12-05T04:11:28.141Z,10.57
2022-12-05T04:14:44.588Z,10.32
2022-12-05T04:18:12.669Z,10.40
2022-12-05T04:21:34.774Z,11.57
2022-12-05T04:24:54.896Z,10.93
2022-12-05T04:28:33.181Z,10.02
2022-12-05T04:31:44.368Z,8.45
2022-12-05T04:34:54.737Z,7.57
2022-12-05T04:38:04.186Z,8.65
2022-12-05T04:41:11.276Z,10.18
2022-12-05T04:44:17.505Z,9.32
2022-12-05T04:47:21.209Z,12.82
2022-12-05T04:50:27.001Z,15.18
2022-12-05T04:53:31.062Z,16.23
2022-12-05T04:59:36.145Z,11.90
2022-12-05T05:02:47.239Z,11.07
2022-12-05T05:05:53.065Z,9.73
2022-12-05T05:08:56.877Z,7.88
2022-12-05T05:11:58.430Z,9.70
2022-12-05T05:14:59.978Z,9.45
2022-12-05T05:18:01.562Z,7.47
2022-12-05T05:21:03.038Z,7.95
2022-12-05T05:24:06.342Z,9.00
2022-12-05T05:27:07.886Z,9.63
2022-12-05T05:30:09.794Z,9.05
2022-12-05T05:33:11.312Z,10.45
2022-12-05T05:36:13.994Z,10.80
2022-12-05T05:39:15.669Z,9.68
2022-12-05T05:42:17.284Z,10.07
2022-12-05T05:45:18.914Z,10.15
2022-12-05T05:48:20.478Z,9.50
2022-12-05T05:51:23.493Z,10.98
2022-12-05T05:54:25.062Z,9.73
2022-12-05T05:57:26.579Z,7.82
2022-12-05T06:00:28.168Z,9.63
2022-12-05T06:03:29.750Z,9.27
2022-12-05T06:06:31.457Z,10.68
2022-12-05T06:09:32.960Z,9.68
2022-12-05T06:12:34.555Z,8.95
2022-12-05T06:15:37.155Z,9.15
2022-12-05T06:18:38.769Z,9.10
2022-12-05T06:21:40.369Z,10.40
2022-12-05T06:24:41.887Z,17.48
2022-12-05T06:27:43.430Z,15.10
2022-12-05T06:30:45.215Z,14.35
2022-12-05T06:33:47.179Z,15.77
2022-12-05T06:36:48.750Z,14.32
2022-12-05T06:39:51.857Z,12.90
2022-12-05T06:42:53.549Z,11.93
2022-12-05T06:45:55.271Z,14.50
2022-12-05T06:48:58.106Z,13.07
2022-12-05T06:51:59.754Z,12.32
2022-12-05T06:55:01.321Z,10.45
2022-12-05T06:58:03.009Z,10.30
2022-12-05T07:01:23.264Z,9.73
2022-12-05T07:04:25.871Z,13.93
2022-12-05T07:07:29.518Z,14.27
2022-12-05T07:10:31.192Z,12.50
2022-12-05T07:13:32.819Z,13.27
2022-12-05T07:16:34.546Z,10.27
2022-12-05T07:19:36.421Z,12.75
2022-12-05T07:22:38.036Z,14.10
2022-12-05T07:25:41.545Z,11.85
2022-12-05T07:28:43.002Z,13.27
2022-12-05T07:31:44.777Z,11.55
2022-12-05T07:34:49.639Z,12.55
2022-12-05T07:37:53.747Z,13.95
2022-12-05T07:40:55.410Z,11.85
2022-12-05T07:43:58.337Z,12.57
2022-12-05T07:46:59.876Z,13.88
2022-12-05T07:50:01.438Z,14.80
2022-12-05T07:53:04.247Z,15.40
2022-12-05T07:56:07.874Z,15.32
2022-12-05T07:59:09.508Z,14.13
2022-12-05T08:02:11.335Z,11.88
2022-12-05T08:05:13.217Z,13.45
2022-12-05T08:08:14.815Z,20.83
2022-12-05T08:11:18.884Z,17.50
2022-12-05T08:14:20.691Z,12.48
2022-12-05T08:17:22.282Z,14.80
2022-12-05T08:20:23.810Z,17.70
2022-12-05T08:23:25.392Z,27.17
2022-12-05T08:26:29.303Z,15.40
2022-12-05T08:29:30.912Z,23.00
2022-12-05T08:32:32.460Z,12.85
2022-12-05T08:35:37.335Z,15.18
2022-12-05T08:38:39.106Z,16.17
2022-12-05T08:41:40.859Z,14.38
2022-12-05T08:44:42.443Z,18.05
2022-12-05T08:47:43.938Z,25.33
2022-12-05T08:50:45.579Z,17.50
2022-12-05T08:53:47.328Z,13.95
2022-12-05T08:56:51.634Z,16.77
2022-12-05T08:59:53.270Z,14.45
2022-12-05T09:02:54.831Z,13.82
2022-12-05T09:06:09.367Z,11.38
2022-12-05T09:12:15.290Z,10.20
2022-12-05T09:15:17.526Z,8.00
2022-12-05T09:18:20.226Z,9.10
2022-12-05T09:21:25.503Z,8.20
2022-12-05T09:24:27.077Z,7.30
2022-12-05T09:27:29.063Z,7.50
2022-12-05T09:30:30.582Z,12.13
2022-12-05T09:33:34.122Z,8.63
2022-12-05T09:36:35.654Z,6.53
2022-12-05T09:39:37.545Z,7.43
2022-12-05T09:43:01.433Z,5.10
2022-12-05T09:46:35.909Z,5.23
2022-12-05T09:49:47.544Z,5.50
2022-12-05T09:53:10.556Z,10.50
2022-12-05T09:56:25.761Z,8.55
2022-12-05T09:59:27.295Z,8.80
2022-12-05T10:02:53.897Z,10.95
2022-12-05T10:06:27.858Z,10.35
2022-12-05T10:09:47.631Z,11.03
2022-12-05T10:12:54.877Z,11.50
2022-12-05T10:16:02.894Z,10.55
2022-12-05T10:19:14.727Z,9.50
2022-12-05T10:22:22.006Z,8.93
2022-12-05T10:25:27.455Z,7.55
2022-12-05T10:28:35.602Z,10.68
2022-12-05T10:31:39.085Z,9.32
2022-12-05T10:34:43.028Z,6.97
2022-12-05T10:37:49.941Z,9.07
2022-12-05T10:40:54.593Z,6.65
2022-12-05T10:43:58.916Z,6.65
2022-12-05T10:47:01.806Z,5.70
2022-12-05T10:50:35.856Z,6.82
2022-12-05T10:53:40.027Z,6.33
2022-12-05T10:56:50.066Z,7.38
2022-12-05T10:59:52.639Z,8.35
2022-12-05T11:02:55.370Z,7.90
2022-12-05T11:06:01.995Z,6.10
2022-12-05T11:09:15.831Z,6.40
2022-12-05T11:12:20.184Z,7.28
2022-12-05T11:15:25.522Z,6.25
2022-12-05T11:18:32.734Z,6.47
2022-12-05T11:21:42.624Z,7.50
2022-12-05T11:24:44.147Z,6.20
2022-12-05T11:27:45.687Z,5.38
2022-12-05T11:31:02.932Z,4.50
2022-12-05T11:34:17.578Z,4.68
2022-12-05T11:37:31.605Z,4.15
2022-12-05T11:40:38.156Z,4.90
2022-12-05T11:43:58.646Z,4.72
2022-12-05T11:47:18.829Z,4.55
2022-12-05T11:50:44.882Z,5.05
2022-12-05T11:54:14.116Z,4.28
2022-12-05T11:57:32.683Z,5.22
2022-12-05T12:01:21.244Z,5.43
2022-12-05T12:05:13.946Z,5.22
2022-12-05T12:08:42.911Z,6.53
2022-12-05T12:12:04.251Z,6.38
2022-12-05T12:15:17.355Z,7.10
2022-12-05T12:18:24.472Z,9.82
2022-12-05T12:22:04.017Z,7.50
2022-12-05T12:25:32.286Z,5.93
2022-12-05T12:29:01.500Z,6.28
2022-12-05T12:32:22.296Z,5.95
2022-12-05T12:35:32.118Z,6.22
2022-12-05T12:39:04.441Z,5.72
2022-12-05T12:42:15.927Z,7.63
2022-12-05T12:45:21.078Z,6.88
2022-12-05T12:48:42.681Z,12.20
2022-12-05T12:51:54.529Z,9.55
2022-12-05T12:55:27.075Z,7.63
2022-12-05T12:59:04.317Z,6.28
2022-12-05T13:02:16.246Z,7.95
2022-12-05T13:05:38.675Z,6.47
2022-12-05T13:08:45.992Z,7.25
2022-12-05T13:11:50.573Z,7.30
2022-12-05T13:14:58.395Z,6.45
2022-12-05T13:18:01.853Z,10.00
2022-12-05T13:21:07.950Z,14.73
2022-12-05T13:24:13.736Z,12.63
2022-12-05T13:27:19.148Z,12.77
2022-12-05T13:30:20.944Z,10.27
2022-12-05T13:33:26.091Z,10.88
2022-12-05T13:36:46.427Z,11.88
2022-12-05T13:40:11.842Z,7.57
2022-12-05T13:43:18.489Z,6.47
2022-12-05T13:46:27.220Z,7.63
2022-12-05T13:49:43.322Z,8.63
2022-12-05T13:52:57.950Z,8.80
2022-12-05T13:56:13.342Z,9.45
2022-12-05T13:59:53.373Z,9.27
2022-12-05T14:03:06.093Z,8.55
2022-12-05T14:06:07.899Z,13.45
2022-12-05T14:09:18.221Z,15.70
2022-12-05T14:12:19.671Z,11.98
2022-12-05T14:15:24.388Z,10.18
2022-12-05T14:18:48.607Z,10.30
2022-12-05T14:21:59.039Z,10.60
2022-12-05T14:25:16.995Z,8.85
2022-12-05T14:28:46.725Z,7.32
2022-12-05T14:32:06.390Z,8.68
2022-12-05T14:35:40.836Z,7.47
2022-12-05T14:38:44.193Z,7.45
2022-12-05T14:41:47.528Z,8.05
2022-12-05T14:44:50.722Z,7.22
2022-12-05T14:47:55.815Z,8.95
2022-12-05T14:50:59.786Z,7.38
2022-12-05T14:54:07.845Z,7.45
2022-12-05T14:57:16.408Z,6.43
2022-12-05T15:00:22.577Z,6.38
2022-12-05T15:03:32.422Z,11.68
2022-12-05T15:06:55.809Z,6.80
2022-12-05T15:10:01.621Z,6.63
2022-12-05T15:13:10.947Z,6.60
2022-12-05T15:16:18.103Z,7.35
2022-12-05T15:19:30.003Z,7.68
2022-12-05T15:22:35.318Z,7.32
2022-12-05T15:25:37.397Z,6.43
2022-12-05T15:28:38.931Z,6.78
2022-12-05T15:31:50.089Z,7.47
2022-12-05T15:34:54.623Z,7.57
2022-12-05T15:38:25.479Z,7.28
2022-12-05T15:41:28.671Z,6.93
2022-12-05T15:44:34.435Z,7.80
2022-12-05T15:47:40.633Z,8.40
2022-12-05T15:50:51.181Z,7.43
2022-12-05T15:54:00.284Z,8.05
2022-12-05T15:57:09.224Z,10.35
2022-12-05T16:00:17.277Z,9.50
2022-12-05T16:03:25.846Z,7.55
2022-12-05T16:06:44.913Z,8.18
2022-12-05T16:09:47.673Z,5.90
2022-12-05T16:12:51.287Z,8.02
2022-12-05T16:15:54.802Z,7.65
2022-12-05T16:18:59.312Z,5.90
2022-12-05T16:22:09.370Z,7.88
2022-12-05T16:25:34.742Z,5.97
2022-12-05T16:28:36.282Z,5.18
2022-12-05T16:31:45.150Z,7.28
2022-12-05T16:34:47.640Z,7.50
2022-12-05T16:37:49.124Z,6.35
2022-12-05T16:40:52.839Z,5.75
2022-12-05T16:43:57.316Z,6.68
2022-12-05T16:46:59.117Z,7.55
2022-12-05T16:50:25.491Z,8.48
2022-12-05T16:53:32.976Z,6.82
2022-12-05T16:56:34.640Z,6.97
2022-12-05T16:59:38.929Z,7.90
2022-12-05T17:02:40.523Z,5.72
2022-12-05T17:05:42.085Z,6.78
2022-12-05T17:08:44.521Z,7.68
2022-12-05T17:11:49.310Z,7.97
2022-12-05T17:14:50.847Z,8.02
2022-12-05T17:17:52.680Z,7.30
2022-12-05T17:20:55.920Z,7.38
2022-12-05T17:23:57.508Z,9.80
2022-12-05T17:26:59.014Z,8.50
2022-12-05T17:30:00.845Z,9.95
2022-12-05T17:33:04.376Z,11.00
2022-12-05T17:36:06.044Z,11.37
2022-12-05T17:39:08.869Z,14.93
2022-12-05T17:42:10.365Z,14.35
2022-12-05T17:45:14.768Z,11.95
2022-12-05T17:48:16.710Z,11.35
2022-12-05T17:51:19.946Z,24.90
2022-12-05T17:54:22.219Z,23.70
2022-12-05T17:57:23.975Z,16.35
2022-12-05T18:00:25.662Z,17.40
2022-12-05T18:03:27.474Z,18.23
2022-12-05T18:06:29.112Z,10.65
2022-12-05T18:09:31.111Z,27.02
2022-12-05T18:12:32.817Z,11.18
2022-12-05T18:15:39.383Z,23.95
2022-12-05T18:18:44.148Z,12.90
2022-12-05T18:24:53.174Z,8.90
2022-12-05T18:27:55.512Z,9.45
2022-12-05T18:31:11.737Z,8.75
2022-12-05T18:34:13.291Z,17.30
2022-12-05T18:37:16.565Z,18.77
2022-12-05T18:40:19.163Z,16.45
2022-12-05T18:43:21.273Z,11.85
2022-12-05T18:46:23.470Z,11.50
2022-12-05T18:49:25.062Z,6.88
2022-12-05T18:52:26.627Z,5.25
2022-12-05T18:55:57.861Z,5.97
2022-12-05T18:58:58.097Z,6.20
2022-12-05T19:02:00.545Z,7.68
2022-12-05T19:05:02.130Z,10.73
2022-12-05T19:08:04.051Z,13.23
2022-12-05T19:11:06.229Z,10.07
2022-12-05T19:14:07.888Z,12.48
2022-12-05T19:17:09.481Z,7.03
2022-12-05T19:20:11.832Z,8.23
2022-12-05T19:23:14.139Z,8.52
2022-12-05T19:26:15.977Z,10.57
2022-12-05T19:29:17.740Z,7.50
2022-12-05T19:32:19.286Z,6.68
2022-12-05T19:35:21.028Z,8.07
2022-12-05T19:38:22.486Z,9.45
2022-12-05T19:41:27.787Z,13.27
2022-12-05T19:44:29.485Z,14.18
2022-12-05T19:47:31.096Z,8.45
2022-12-05T19:50:32.643Z,5.88
2022-12-05T19:53:36.397Z,7.05
2022-12-05T19:56:38.555Z,8.07
2022-12-05T19:59:40.235Z,6.45
2022-12-05T20:02:44.815Z,9.05
2022-12-05T20:05:57.862Z,7.05
2022-12-05T20:09:00.302Z,8.32
2022-12-05T20:12:04.267Z,7.60
2022-12-05T20:15:06.274Z,7.07
2022-12-05T20:18:07.786Z,7.85
2022-12-05T20:21:12.331Z,10.40
2022-12-05T20:24:13.935Z,7.80
2022-12-05T20:27:15.407Z,8.75
2022-12-05T20:30:17.111Z,7.25
2022-12-05T20:33:18.679Z,7.75
2022-12-05T20:36:22.678Z,7.20
2022-12-05T20:42:26.376Z,8.10
2022-12-05T20:45:27.961Z,9.25
2022-12-05T20:48:29.486Z,11.98
2022-12-05T20:51:33.218Z,8.23
2022-12-05T20:54:37.586Z,8.30
2022-12-05T20:57:40.405Z,8.50
2022-12-05T21:00:43.566Z,7.05
2022-12-05T21:03:47.264Z,7.70
2022-12-05T21:06:49.646Z,6.45
2022-12-05T21:09:51.210Z,8.13
2022-12-05T21:12:52.780Z,9.25
2022-12-05T21:15:54.347Z,6.43
2022-12-05T21:18:56.428Z,9.63
2022-12-05T21:21:58.178Z,9.20
2022-12-05T21:24:59.854Z,6.18
2022-12-05T21:28:02.166Z,6.20
2022-12-05T21:31:24.940Z,6.10
2022-12-05T21:34:26.552Z,19.85
2022-12-05T21:37:28.097Z,21.45
2022-12-05T21:40:29.814Z,21.48
2022-12-05T21:43:33.250Z,31.33
2022-12-05T21:46:34.888Z,23.95
2022-12-05T21:49:36.420Z,17.80
2022-12-05T21:52:41.316Z,12.73
2022-12-05T21:55:43.467Z,11.15
2022-12-05T21:58:46.257Z,9.10
2022-12-05T22:01:47.789Z,18.45
2022-12-05T22:04:49.426Z,17.45
2022-12-05T22:07:51.013Z,16.80
2022-12-05T22:10:52.600Z,27.27
2022-12-05T22:13:54.166Z,8.45
2022-12-05T22:16:55.646Z,20.98
2022-12-05T22:19:58.896Z,16.73
2022-12-05T22:23:00.693Z,12.43
2022-12-05T22:26:03.297Z,8.52
2022-12-05T22:29:04.963Z,9.60
2022-12-05T22:32:06.930Z,17.70
2022-12-05T22:35:08.647Z,42.05
2022-12-05T22:38:10.172Z,25.88
2022-12-05T22:41:14.435Z,26.90
2022-12-05T22:44:16.002Z,36.60
2022-12-05T22:47:17.579Z,39.25
2022-12-05T22:50:19.036Z,17.40
2022-12-05T22:53:22.850Z,20.58
2022-12-05T22:56:27.395Z,19.45
2022-12-05T22:59:28.922Z,9.88
2022-12-05T23:02:30.420Z,6.82
2022-12-05T23:05:32.129Z,7.65
2022-12-05T23:08:34.409Z,14.10
2022-12-05T23:11:38.131Z,12.48
2022-12-05T23:14:41.538Z,6.93
2022-12-05T23:17:43.775Z,8.32
2022-12-05T23:20:45.336Z,9.15
2022-12-05T23:23:48.218Z,6.32
2022-12-05T23:26:49.769Z,7.97
2022-12-05T23:29:51.350Z,7.30
2022-12-05T23:32:52.931Z,7.30
2022-12-05T23:35:54.591Z,10.10
2022-12-05T23:38:56.114Z,7.43
2022-12-05T23:41:57.634Z,9.13
2022-12-05T23:44:59.147Z,10.30
2022-12-05T23:48:04.392Z,8.13
2022-12-05T23:51:09.291Z,8.18
2022-12-05T23:54:12.127Z,10.00
2022-12-05T23:57:17.609Z,8.52
